Brier Hill, New York
Current Conditions -  °F | °C
As of 11:58 AM on Sunday 23 Nov 2014 (Local Time) from KGTB Reporting Station
Overcast Overcast  
Wind Chill: 40°   Ceiling: 2200
Heat Index: 45°   Visibility: 10mi
Dew Point: 39°   Wind: 9mph
Humidity: 81%   Direction: 220°SW
Pressure: 30.02"   Gusts: NA
Location:  44.53°N, 75.66°W
Report Text: KGTB 231658Z AUTO 22008KT 10SM OVC022 07/04 A3002 RMK AO2 SLP171 T00700039
Loading
Personal Weather Stations






























Interactive Weather Map New forecast layout! Learn more

10-Day Weather Forecast

Advertisements
Track Severe Weather on mobile